Time;durP1;ratioP1;P1;durP2;ratioP2;P2;SDS_P1;SDS_P2;PMS_P1;PMS_P2;Temp;Humidity;BMP_temperature;BMP_pressure;BME280_temperature;BME280_humidity;BME280_pressure;Samples;Min_cycle;Max_cycle;Signal;HPM_P1;HPM_P2
2023/12/01 00:01:52;;;;;;;9.07;8.20;;;;;;;0.98;100.00;97020.81;4158171;28;20220;-47
2023/12/01 00:03:54;;;;;;;7.18;6.50;;;;;;;0.98;100.00;97020.81;4133057;28;20209;-46
2023/12/01 00:05:56;;;;;;;7.13;5.95;;;;;;;1.04;100.00;97030.69;4158662;28;20224;-46
2023/12/01 00:07:58;;;;;;;9.80;7.88;;;;;;;1.18;100.00;97042.91;4160687;28;20215;-46
2023/12/01 00:10:02;;;;;;;6.97;6.35;;;;;;;1.06;100.00;97039.34;4160663;28;20266;-46
2023/12/01 00:12:04;;;;;;;6.03;5.20;;;;;;;1.18;100.00;97032.16;4141238;28;20315;-47
2023/12/01 00:14:06;;;;;;;7.82;6.90;;;;;;;1.11;100.00;97031.41;4161330;28;20213;-44
2023/12/01 00:16:08;;;;;;;6.70;6.05;;;;;;;1.19;100.00;97028.41;4159474;28;20224;-46
2023/12/01 00:18:10;;;;;;;6.03;5.45;;;;;;;1.18;100.00;97018.69;4162048;28;20771;-45
2023/12/01 00:20:12;;;;;;;8.45;7.65;;;;;;;1.20;100.00;97029.22;4161369;28;20334;-47
2023/12/01 00:22:14;;;;;;;7.55;6.72;;;;;;;1.22;100.00;97038.69;4149508;28;20204;-47
2023/12/01 00:24:16;;;;;;;5.85;4.88;;;;;;;1.22;100.00;97022.53;4162178;28;20215;-47
2023/12/01 00:26:17;;;;;;;7.78;7.07;;;;;;;1.11;100.00;97009.88;4166599;28;20237;-47
2023/12/01 00:28:19;;;;;;;7.63;6.90;;;;;;;1.03;100.00;97017.44;4144402;28;20626;-44
2023/12/01 00:30:23;;;;;;;5.10;4.60;;;;;;;1.13;100.00;97032.00;4162509;28;20205;-46
2023/12/01 00:32:25;;;;;;;6.05;5.45;;;;;;;1.15;100.00;97037.16;4161382;28;20612;-48
2023/12/01 00:34:27;;;;;;;7.57;6.85;;;;;;;1.10;100.00;97024.38;4159619;28;20602;-48
2023/12/01 00:36:29;;;;;;;8.32;7.63;;;;;;;1.16;100.00;97028.88;4161198;28;20200;-48
2023/12/01 00:38:30;;;;;;;6.43;5.40;;;;;;;1.26;100.00;97012.97;4160514;28;20223;-48
2023/12/01 00:40:32;;;;;;;5.25;4.80;;;;;;;1.21;100.00;97026.28;4149160;28;20213;-47
2023/12/01 00:42:34;;;;;;;7.68;6.45;;;;;;;1.22;100.00;97024.44;4158191;28;20213;-47
2023/12/01 00:44:35;;;;;;;6.63;6.03;;;;;;;1.27;100.00;97020.00;4143661;28;20201;-48
2023/12/01 00:46:37;;;;;;;6.75;6.13;;;;;;;1.29;100.00;97023.25;4155517;28;20208;-46
2023/12/01 00:48:39;;;;;;;6.07;5.57;;;;;;;1.26;100.00;97023.75;4160698;28;20205;-46
2023/12/01 00:50:41;;;;;;;6.25;5.65;;;;;;;1.27;100.00;97030.75;4161617;28;20209;-47
2023/12/01 00:52:43;;;;;;;6.18;5.55;;;;;;;1.24;100.00;97025.84;4151004;28;20214;-47
2023/12/01 00:54:44;;;;;;;7.40;6.70;;;;;;;1.31;100.00;97010.41;4148772;28;20240;-47
2023/12/01 00:56:46;;;;;;;8.77;8.13;;;;;;;1.26;100.00;97012.13;4155827;28;20200;-47
2023/12/01 00:58:48;;;;;;;5.70;5.20;;;;;;;1.30;100.00;97024.94;4168566;28;20240;-47
2023/12/01 01:00:50;;;;;;;8.60;6.80;;;;;;;1.34;100.00;97036.88;4160775;28;20208;-46
2023/12/01 01:02:51;;;;;;;8.43;6.05;;;;;;;1.32;100.00;97040.84;4161525;28;20248;-49
2023/12/01 01:04:53;;;;;;;7.05;6.45;;;;;;;1.31;100.00;97042.75;4160528;28;20792;-46
2023/12/01 01:06:55;;;;;;;7.85;6.40;;;;;;;1.27;100.00;97038.84;4164280;28;20753;-47
2023/12/01 01:09:00;;;;;;;8.10;6.10;;;;;;;1.39;100.00;97033.50;4161974;28;20209;-46
2023/12/01 01:11:02;;;;;;;9.45;6.30;;;;;;;1.35;100.00;97027.75;4149200;28;20217;-46
2023/12/01 01:13:04;;;;;;;8.90;8.00;;;;;;;1.34;100.00;97009.94;4143155;28;20280;-47
2023/12/01 01:15:06;;;;;;;5.68;4.72;;;;;;;1.29;100.00;97006.31;4147247;28;20753;-48
2023/12/01 01:17:08;;;;;;;11.13;6.88;;;;;;;1.44;100.00;97017.47;4160316;28;20811;-47
2023/12/01 01:19:09;;;;;;;8.63;8.02;;;;;;;1.35;100.00;97011.56;4161022;28;20314;-46
2023/12/01 01:21:11;;;;;;;7.20;6.70;;;;;;;1.27;100.00;97024.56;4144015;28;20232;-48
2023/12/01 01:23:13;;;;;;;10.30;6.40;;;;;;;1.27;100.00;97044.22;4161093;28;20697;-47
2023/12/01 01:25:15;;;;;;;6.15;5.03;;;;;;;1.30;100.00;97038.41;4154349;28;20251;-47
2023/12/01 01:27:17;;;;;;;5.47;4.85;;;;;;;1.28;100.00;97048.56;4140792;28;20293;-46
2023/12/01 01:29:19;;;;;;;7.50;6.18;;;;;;;1.27;100.00;97051.50;4162570;28;20200;-47
2023/12/01 01:31:20;;;;;;;6.90;6.32;;;;;;;1.26;100.00;97050.66;4158633;28;20208;-46
2023/12/01 01:33:22;;;;;;;7.10;6.45;;;;;;;1.26;100.00;97064.13;4159864;28;20659;-48
2023/12/01 01:35:25;;;;;;;8.85;5.30;;;;;;;1.29;100.00;97082.53;4162083;28;20690;-46
2023/12/01 01:37:26;;;;;;;6.85;6.15;;;;;;;1.28;100.00;97072.00;4161415;28;20201;-48
2023/12/01 01:39:28;;;;;;;6.38;5.80;;;;;;;1.34;100.00;97069.22;4159913;28;20216;-46
2023/12/01 01:41:30;;;;;;;9.52;8.65;;;;;;;1.44;100.00;97084.81;4160322;28;20204;-46
2023/12/01 01:43:32;;;;;;;7.75;7.05;;;;;;;1.52;100.00;97088.03;4158003;28;20197;-46
2023/12/01 01:45:33;;;;;;;7.63;7.03;;;;;;;1.22;100.00;97084.47;4157205;28;20229;-47
2023/12/01 01:47:35;;;;;;;7.47;5.95;;;;;;;1.18;100.00;97086.00;4142199;28;20216;-48
2023/12/01 01:49:37;;;;;;;7.40;6.70;;;;;;;1.16;100.00;97088.13;4143231;28;20316;-46
2023/12/01 01:51:39;;;;;;;9.43;7.22;;;;;;;1.08;100.00;97096.47;4176803;28;20243;-46
2023/12/01 01:53:41;;;;;;;8.73;7.93;;;;;;;1.12;100.00;97096.84;4143695;28;20213;-46
2023/12/01 01:55:43;;;;;;;9.50;8.60;;;;;;;0.93;100.00;97081.75;4157613;28;20268;-45
2023/12/01 01:57:46;;;;;;;9.13;8.25;;;;;;;0.86;100.00;97071.06;4144078;28;20209;-46
2023/12/01 01:59:47;;;;;;;8.73;4.90;;;;;;;0.99;100.00;97068.22;4155432;28;20666;-47
2023/12/01 02:01:50;;;;;;;8.63;6.65;;;;;;;0.87;100.00;97055.75;4146928;28;20208;-46
2023/12/01 02:03:53;;;;;;;7.78;7.13;;;;;;;0.81;100.00;97057.44;4170251;28;20816;-48
2023/12/01 02:05:54;;;;;;;7.97;7.30;;;;;;;0.84;100.00;97062.41;4159292;28;20259;-46
2023/12/01 02:07:56;;;;;;;9.10;7.38;;;;;;;1.00;100.00;97072.56;4161640;28;20296;-46
2023/12/01 02:09:58;;;;;;;7.20;6.65;;;;;;;1.06;100.00;97079.72;4165478;28;20216;-46
2023/12/01 02:12:00;;;;;;;6.28;5.68;;;;;;;1.09;100.00;97081.16;4164067;28;20288;-46
2023/12/01 02:14:02;;;;;;;7.93;7.18;;;;;;;1.11;100.00;97079.03;4163548;28;20562;-46
2023/12/01 02:16:04;;;;;;;8.50;7.80;;;;;;;1.11;100.00;97087.97;4146038;28;20311;-46
2023/12/01 02:18:21;;;;;;;7.45;6.43;;;;;;;1.15;100.00;97097.22;4165914;28;20205;-47
2023/12/01 02:20:23;;;;;;;12.93;7.68;;;;;;;1.26;100.00;97093.78;4178743;28;20216;-46
2023/12/01 02:22:25;;;;;;;7.10;5.95;;;;;;;1.26;100.00;97083.00;4162960;28;20210;-46
2023/12/01 02:24:26;;;;;;;8.32;6.43;;;;;;;1.28;100.00;97074.69;4162281;28;20204;-46
2023/12/01 02:26:28;;;;;;;7.13;6.32;;;;;;;1.31;100.00;97080.44;4143911;28;20256;-46
2023/12/01 02:28:30;;;;;;;5.72;5.32;;;;;;;1.37;100.00;97100.25;4159442;28;20200;-48
2023/12/01 02:30:32;;;;;;;9.55;8.63;;;;;;;1.40;100.00;97094.44;4161721;28;20668;-47
2023/12/01 02:32:37;;;;;;;7.20;6.50;;;;;;;1.44;100.00;97093.75;4161138;28;20995;-47
2023/12/01 02:34:41;;;;;;;12.52;9.18;;;;;;;1.44;100.00;97090.22;4159047;28;20263;-46
2023/12/01 02:36:42;;;;;;;9.90;8.30;;;;;;;1.44;100.00;97084.81;4161002;28;20662;-46
2023/12/01 02:38:44;;;;;;;6.30;5.40;;;;;;;1.48;100.00;97097.63;4166274;28;20778;-47
2023/12/01 02:40:50;;;;;;;5.03;4.55;;;;;;;1.52;100.00;97096.13;4169600;28;20213;-47
2023/12/01 02:42:53;;;;;;;7.10;6.53;;;;;;;1.58;100.00;97100.59;4163089;28;20205;-47
2023/12/01 02:44:55;;;;;;;9.30;7.80;;;;;;;1.53;100.00;97100.44;4164094;28;20315;-46
2023/12/01 02:46:57;;;;;;;7.13;6.55;;;;;;;1.62;100.00;97111.75;4167174;28;20277;-45
2023/12/01 02:48:58;;;;;;;5.68;5.15;;;;;;;1.58;100.00;97100.59;4152297;28;20623;-46
2023/12/01 02:51:00;;;;;;;8.52;7.72;;;;;;;1.64;100.00;97099.69;4165289;28;20969;-46
2023/12/01 02:53:03;;;;;;;6.97;6.28;;;;;;;1.46;100.00;97094.34;4160226;28;20220;-46
2023/12/01 02:55:05;;;;;;;6.45;5.80;;;;;;;1.45;100.00;97098.09;4168172;28;20228;-44
2023/12/01 02:57:10;;;;;;;8.00;7.30;;;;;;;1.47;100.00;97090.59;4137411;28;20240;-45
2023/12/01 02:59:12;;;;;;;8.13;6.32;;;;;;;1.45;100.00;97081.06;4159418;28;20355;-47
2023/12/01 03:01:15;;;;;;;8.10;6.30;;;;;;;1.37;100.00;97078.72;4160000;28;20213;-44
2023/12/01 03:03:17;;;;;;;7.40;6.47;;;;;;;1.35;100.00;97070.84;4158997;28;20332;-46
2023/12/01 03:05:20;;;;;;;8.82;5.85;;;;;;;1.41;100.00;97080.72;4142189;28;20585;-46
2023/12/01 03:07:21;;;;;;;5.60;5.10;;;;;;;1.35;100.00;97076.22;4173752;28;20289;-49
2023/12/01 03:09:23;;;;;;;9.10;5.78;;;;;;;1.40;100.00;97075.56;4160257;28;20966;-47
2023/12/01 03:11:25;;;;;;;7.13;6.43;;;;;;;1.38;100.00;97081.19;4176895;28;20211;-46
2023/12/01 03:13:26;;;;;;;5.07;4.28;;;;;;;1.39;100.00;97072.03;4160542;28;20208;-48
2023/12/01 03:15:29;;;;;;;8.30;5.70;;;;;;;1.41;100.00;97069.94;4162828;28;20291;-48
2023/12/01 03:17:31;;;;;;;7.57;6.80;;;;;;;1.54;100.00;97064.38;4161132;28;20662;-47
2023/12/01 03:19:33;;;;;;;7.43;6.25;;;;;;;1.54;100.00;97067.06;4162844;28;20224;-46
2023/12/01 03:21:35;;;;;;;8.18;7.47;;;;;;;1.51;100.00;97080.16;4160006;28;20219;-46
2023/12/01 03:23:37;;;;;;;8.32;7.72;;;;;;;1.46;100.00;97080.03;4160236;28;20220;-46
2023/12/01 03:25:39;;;;;;;9.75;5.65;;;;;;;1.37;100.00;97084.94;4157564;28;20232;-46
2023/12/01 03:27:45;;;;;;;6.18;5.63;;;;;;;1.41;100.00;97075.31;4162365;28;20211;-47
2023/12/01 03:29:47;;;;;;;9.55;8.50;;;;;;;1.27;100.00;97073.88;4160903;28;20250;-47
2023/12/01 03:31:49;;;;;;;4.93;4.32;;;;;;;1.28;100.00;97070.13;4160321;28;20594;-46
2023/12/01 03:33:51;;;;;;;6.88;6.18;;;;;;;1.33;100.00;97078.34;4162072;28;20212;-46
2023/12/01 03:35:52;;;;;;;5.38;4.88;;;;;;;1.40;100.00;97083.66;4161233;28;20257;-49
2023/12/01 03:37:55;;;;;;;6.88;5.40;;;;;;;1.38;100.00;97075.78;4161778;28;20303;-46
2023/12/01 03:39:57;;;;;;;6.47;5.88;;;;;;;1.38;100.00;97081.19;4160981;28;20270;-46
2023/12/01 03:41:59;;;;;;;6.22;5.60;;;;;;;1.42;100.00;97071.56;4157776;28;20205;-46
2023/12/01 03:44:01;;;;;;;8.70;8.07;;;;;;;1.56;100.00;97062.28;4160306;28;20318;-46
2023/12/01 03:46:03;;;;;;;7.15;6.07;;;;;;;1.47;100.00;97063.63;4162595;28;20806;-46
2023/12/01 03:48:07;;;;;;;6.45;5.80;;;;;;;1.46;100.00;97078.16;4149772;28;20295;-46
2023/12/01 03:50:12;;;;;;;7.45;4.93;;;;;;;1.44;100.00;97085.66;4164001;28;20634;-46
2023/12/01 03:52:14;;;;;;;9.88;9.07;;;;;;;1.42;100.00;97093.13;4142979;28;20213;-47
2023/12/01 03:54:15;;;;;;;9.10;5.97;;;;;;;1.48;100.00;97092.22;4158532;28;20665;-46
2023/12/01 03:56:17;;;;;;;7.20;6.53;;;;;;;1.52;100.00;97087.19;4162311;28;20279;-46
2023/12/01 03:58:19;;;;;;;9.88;7.35;;;;;;;1.61;100.00;97075.88;4158002;28;20785;-47
2023/12/01 04:00:22;;;;;;;6.60;6.00;;;;;;;1.54;100.00;97088.63;4163172;28;20228;-47
2023/12/01 04:02:24;;;;;;;6.30;5.80;;;;;;;1.48;100.00;97078.75;4163225;28;20222;-46
2023/12/01 04:04:26;;;;;;;6.97;5.85;;;;;;;1.45;100.00;97071.13;4160416;28;20234;-46
2023/12/01 04:06:28;;;;;;;9.40;7.32;;;;;;;1.59;100.00;97060.97;4160545;28;20219;-47
2023/12/01 04:08:31;;;;;;;8.45;7.47;;;;;;;1.60;100.00;97063.44;4160355;28;20269;-46
2023/12/01 04:10:33;;;;;;;7.15;6.50;;;;;;;1.52;100.00;97058.38;4140546;28;20201;-46
2023/12/01 04:12:35;;;;;;;9.50;4.93;;;;;;;1.55;100.00;97060.63;4174701;28;20200;-47
2023/12/01 04:14:36;;;;;;;10.68;8.00;;;;;;;1.50;100.00;97057.81;4142016;28;20209;-46
2023/12/01 04:16:38;;;;;;;6.80;6.25;;;;;;;1.57;100.00;97055.84;4159663;28;20208;-46
2023/12/01 04:18:40;;;;;;;6.10;5.70;;;;;;;1.61;100.00;97065.09;4156421;28;20710;-46
2023/12/01 04:20:42;;;;;;;6.53;5.93;;;;;;;1.56;100.00;97056.91;4161464;28;20375;-46
2023/12/01 04:22:43;;;;;;;5.85;5.20;;;;;;;1.57;100.00;97055.84;4143787;28;20209;-47
2023/12/01 04:24:46;;;;;;;6.63;6.05;;;;;;;1.58;100.00;97060.19;4163234;28;20251;-47
2023/12/01 04:26:48;;;;;;;4.60;4.20;;;;;;;1.59;100.00;97061.81;4163555;28;20332;-46
2023/12/01 04:28:50;;;;;;;6.22;5.60;;;;;;;1.65;100.00;97054.66;4164430;28;20217;-46
2023/12/01 04:30:52;;;;;;;5.65;5.05;;;;;;;1.65;100.00;97060.91;4168059;28;20216;-46
2023/12/01 04:32:55;;;;;;;6.20;5.63;;;;;;;1.65;100.00;97060.91;4151413;28;20252;-46
2023/12/01 04:34:59;;;;;;;11.00;8.00;;;;;;;1.63;100.00;97057.63;4157060;28;20725;-45
2023/12/01 04:37:01;;;;;;;6.10;5.50;;;;;;;1.61;100.00;97070.47;4162196;28;20209;-46
2023/12/01 04:39:03;;;;;;;7.80;6.13;;;;;;;1.55;100.00;97066.00;4161098;28;20274;-46
2023/12/01 04:41:09;;;;;;;5.97;5.20;;;;;;;1.55;100.00;97071.41;4157716;28;20271;-46
2023/12/01 04:43:11;;;;;;;6.15;4.40;;;;;;;1.49;100.00;97075.00;4158958;28;20211;-46
2023/12/01 04:45:15;;;;;;;5.45;5.00;;;;;;;1.50;100.00;97052.41;4141106;28;20287;-46
2023/12/01 04:47:18;;;;;;;5.68;5.07;;;;;;;1.43;100.00;97056.25;4156973;28;20238;-46
2023/12/01 04:49:20;;;;;;;8.50;6.95;;;;;;;1.45;100.00;97059.53;4160007;28;20208;-45
2023/12/01 04:51:22;;;;;;;8.45;5.90;;;;;;;1.45;100.00;97070.31;4160224;28;20273;-47
2023/12/01 04:53:24;;;;;;;6.43;5.82;;;;;;;1.54;100.00;97067.06;4162162;28;20208;-46
2023/12/01 04:55:29;;;;;;;10.32;6.32;;;;;;;1.54;100.00;97064.38;4157890;28;20232;-46
2023/12/01 04:57:31;;;;;;;6.22;5.78;;;;;;;1.64;100.00;97072.72;4150312;28;20204;-47
2023/12/01 04:59:32;;;;;;;9.15;8.25;;;;;;;1.58;100.00;97081.72;4164522;28;20236;-47
2023/12/01 05:01:35;;;;;;;5.13;4.65;;;;;;;1.68;100.00;97089.28;4149270;28;20328;-46
2023/12/01 05:03:37;;;;;;;6.78;6.20;;;;;;;1.57;100.00;97085.47;4148055;28;20206;-47
2023/12/01 05:05:41;;;;;;;7.68;6.88;;;;;;;1.59;100.00;97083.38;4162634;28;20239;-46
2023/12/01 05:07:43;;;;;;;5.03;4.63;;;;;;;1.55;100.00;97087.56;4160933;28;20214;-46
2023/12/01 05:09:45;;;;;;;9.27;5.47;;;;;;;1.62;100.00;97088.28;4155409;28;20294;-48
2023/12/01 05:11:47;;;;;;;6.35;5.70;;;;;;;1.59;100.00;97098.72;4160348;28;20763;-46
2023/12/01 05:13:48;;;;;;;6.65;6.05;;;;;;;1.69;100.00;97110.59;4174876;28;20216;-47
2023/12/01 05:15:50;;;;;;;7.97;7.28;;;;;;;1.75;100.00;97109.66;4172917;28;20232;-47
2023/12/01 05:17:55;;;;;;;6.80;5.35;;;;;;;1.54;100.00;97123.66;4157626;28;20307;-46
2023/12/01 05:19:57;;;;;;;9.45;5.30;;;;;;;1.65;100.00;97119.34;4143853;28;20312;-46
2023/12/01 05:21:59;;;;;;;10.40;5.93;;;;;;;1.61;100.00;97123.56;4156866;28;20565;-46
2023/12/01 05:24:01;;;;;;;10.85;5.72;;;;;;;1.63;100.00;97103.44;4157301;28;20263;-46
2023/12/01 05:26:03;;;;;;;7.90;6.18;;;;;;;1.46;100.00;97110.50;4155511;28;20232;-47
2023/12/01 05:28:07;;;;;;;4.93;4.50;;;;;;;1.47;100.00;97117.53;4161123;28;20215;-47
2023/12/01 05:30:12;;;;;;;6.28;5.68;;;;;;;1.45;100.00;97125.03;4160474;28;20206;-47
2023/12/01 05:32:13;;;;;;;5.38;4.88;;;;;;;1.43;100.00;97123.59;4158843;28;20722;-46
2023/12/01 05:34:15;;;;;;;8.13;6.15;;;;;;;1.47;100.00;97117.53;4143354;28;20610;-45
2023/12/01 05:36:17;;;;;;;6.57;5.93;;;;;;;1.45;100.00;97114.25;4160789;28;20737;-46
2023/12/01 05:38:19;;;;;;;6.35;5.10;;;;;;;1.41;100.00;97118.44;4161611;28;20737;-45
2023/12/01 05:40:23;;;;;;;7.43;4.95;;;;;;;1.48;100.00;97129.13;4164359;28;20229;-45
2023/12/01 05:42:25;;;;;;;8.40;6.63;;;;;;;1.34;100.00;97124.97;4162684;28;20429;-45
2023/12/01 05:44:26;;;;;;;7.60;4.78;;;;;;;1.41;100.00;97134.59;4163570;28;20204;-46
2023/12/01 05:46:28;;;;;;;7.00;6.40;;;;;;;1.43;100.00;97143.31;4151735;28;20282;-45
2023/12/01 05:48:30;;;;;;;6.88;5.50;;;;;;;1.37;100.00;97154.97;4161170;28;20204;-46
2023/12/01 05:50:32;;;;;;;14.57;5.70;;;;;;;1.46;100.00;97158.16;4138582;28;20206;-45
2023/12/01 05:52:40;;;;;;;10.45;4.93;;;;;;;1.42;100.00;97162.38;4160203;28;20201;-45
2023/12/01 05:54:42;;;;;;;6.47;4.90;;;;;;;1.32;100.00;97162.91;4151721;28;20216;-46
2023/12/01 05:56:44;;;;;;;6.15;5.65;;;;;;;1.42;100.00;97165.88;4169191;28;20562;-45
2023/12/01 05:58:45;;;;;;;10.88;6.65;;;;;;;1.42;100.00;97163.19;4170131;28;20215;-45
2023/12/01 06:00:47;;;;;;;6.63;5.88;;;;;;;1.29;100.00;97165.22;4176636;28;20230;-45
2023/12/01 06:02:51;;;;;;;8.32;5.90;;;;;;;1.33;100.00;97169.94;4162919;28;20221;-46
2023/12/01 06:04:53;;;;;;;13.68;6.82;;;;;;;1.34;100.00;97160.81;4161187;28;20228;-45
2023/12/01 06:06:54;;;;;;;6.22;5.63;;;;;;;1.38;100.00;97153.94;4162156;28;20212;-45
2023/12/01 06:08:56;;;;;;;8.98;5.15;;;;;;;1.32;100.00;97152.13;4173794;28;20783;-46
2023/12/01 06:10:58;;;;;;;5.72;5.22;;;;;;;1.21;100.00;97150.19;4178089;28;20208;-46
2023/12/01 06:13:00;;;;;;;11.38;5.88;;;;;;;1.26;100.00;97153.03;4162595;28;20212;-46
2023/12/01 06:15:05;;;;;;;7.03;6.43;;;;;;;1.30;100.00;97164.19;4144054;28;20236;-45
2023/12/01 06:17:07;;;;;;;5.40;4.57;;;;;;;1.34;100.00;97154.59;4178234;28;20207;-45
2023/12/01 06:19:08;;;;;;;5.63;5.13;;;;;;;1.22;100.00;97159.91;4175784;28;20307;-45
2023/12/01 06:21:12;;;;;;;5.30;4.65;;;;;;;1.32;100.00;97156.69;4161760;28;20228;-45
2023/12/01 06:23:13;;;;;;;9.27;7.38;;;;;;;1.22;100.00;97165.28;4178460;28;20283;-45
2023/12/01 06:25:17;;;;;;;7.10;6.38;;;;;;;1.26;100.00;97157.59;4151389;28;20416;-46
2023/12/01 06:27:19;;;;;;;6.88;6.28;;;;;;;1.23;100.00;97169.66;4160725;28;20216;-46
2023/12/01 06:29:21;;;;;;;6.53;6.07;;;;;;;1.23;100.00;97169.66;4151940;28;20201;-46
2023/12/01 06:31:23;;;;;;;8.07;5.75;;;;;;;1.24;100.00;97170.47;4159928;28;20206;-46
2023/12/01 06:33:26;;;;;;;7.00;6.35;;;;;;;1.22;100.00;97186.84;4144557;28;20213;-45
2023/12/01 06:35:31;;;;;;;5.55;4.97;;;;;;;1.16;100.00;97185.06;4158063;28;20255;-45
2023/12/01 06:37:32;;;;;;;8.63;7.82;;;;;;;1.28;100.00;97196.72;4163055;28;20850;-46
2023/12/01 06:39:34;;;;;;;7.15;5.90;;;;;;;1.27;100.00;97197.78;4145677;28;20239;-46
2023/12/01 06:41:41;;;;;;;8.10;6.90;;;;;;;1.26;100.00;97196.13;4162858;28;20259;-45
2023/12/01 06:43:42;;;;;;;6.82;6.22;;;;;;;1.29;100.00;97192.16;4161299;28;20297;-46
2023/12/01 06:45:44;;;;;;;6.78;6.20;;;;;;;1.35;100.00;97200.16;4162561;28;20286;-45
2023/12/01 06:47:47;;;;;;;7.47;6.80;;;;;;;1.33;100.00;97202.25;4159733;28;20315;-46
2023/12/01 06:49:49;;;;;;;8.07;7.38;;;;;;;1.42;100.00;97205.50;4162524;28;20239;-46
2023/12/01 06:51:54;;;;;;;6.10;5.50;;;;;;;1.30;100.00;97200.03;4158849;28;20838;-46
2023/12/01 06:53:56;;;;;;;4.95;4.65;;;;;;;1.34;100.00;97208.50;4162483;28;20216;-46
2023/12/01 06:55:58;;;;;;;5.88;4.43;;;;;;;1.17;100.00;97202.88;4163054;28;20269;-46
2023/12/01 06:57:59;;;;;;;5.50;5.10;;;;;;;1.16;100.00;97212.00;4141901;28;20206;-46
2023/12/01 07:00:01;;;;;;;5.70;5.15;;;;;;;1.19;100.00;97222.31;4166693;28;20240;-46
2023/12/01 07:02:03;;;;;;;5.93;5.32;;;;;;;1.25;100.00;97226.81;4162243;28;20204;-46
2023/12/01 07:04:07;;;;;;;5.28;4.82;;;;;;;1.21;100.00;97222.91;4159763;28;20205;-45
2023/12/01 07:06:09;;;;;;;3.53;3.22;;;;;;;1.19;100.00;97216.09;4151432;28;20261;-45
2023/12/01 07:08:12;;;;;;;6.20;5.70;;;;;;;1.15;100.00;97214.91;4163102;28;20204;-46
2023/12/01 07:10:15;;;;;;;4.82;4.07;;;;;;;1.25;100.00;97216.03;4158895;28;20236;-45
2023/12/01 07:12:17;;;;;;;2.70;2.50;;;;;;;1.19;100.00;97216.94;4163752;28;20212;-46
2023/12/01 07:14:19;;;;;;;6.15;5.60;;;;;;;1.27;100.00;97218.50;4162351;28;20213;-46
2023/12/01 07:16:20;;;;;;;6.32;5.93;;;;;;;1.20;100.00;97213.19;4158463;28;20235;-46
2023/12/01 07:18:23;;;;;;;5.57;4.55;;;;;;;1.17;100.00;97213.66;4161248;28;20208;-46
2023/12/01 07:20:25;;;;;;;5.05;4.55;;;;;;;1.27;100.00;97213.13;4167487;28;20837;-46
2023/12/01 07:22:26;;;;;;;6.05;5.55;;;;;;;1.07;100.00;97202.53;4158983;28;20213;-45
2023/12/01 07:24:28;;;;;;;4.53;4.10;;;;;;;0.97;100.00;97202.25;4159256;28;20259;-46
2023/12/01 07:26:32;;;;;;;6.85;4.78;;;;;;;1.03;100.00;97203.22;4160878;28;20291;-45
2023/12/01 07:28:37;;;;;;;4.97;4.57;;;;;;;1.11;100.00;97197.53;4161180;28;20204;-46
2023/12/01 07:30:40;;;;;;;5.93;5.13;;;;;;;1.17;100.00;97184.00;4160730;28;20239;-46
2023/12/01 07:32:46;;;;;;;5.45;5.03;;;;;;;1.17;100.00;97189.41;4163245;28;20209;-46
2023/12/01 07:34:48;;;;;;;9.43;8.55;;;;;;;1.16;100.00;97197.69;4162955;28;20231;-46
2023/12/01 07:36:49;;;;;;;22.70;4.22;;;;;;;1.20;100.00;97207.00;4161052;28;20694;-46
2023/12/01 07:38:51;;;;;;;4.28;3.97;;;;;;;1.25;100.00;97217.91;4159336;28;20212;-46
2023/12/01 07:40:53;;;;;;;8.32;7.30;;;;;;;1.23;100.00;97217.31;4142844;28;20233;-46
2023/12/01 07:42:58;;;;;;;5.68;5.28;;;;;;;1.21;100.00;97228.28;4160504;28;20208;-46
2023/12/01 07:45:00;;;;;;;5.13;4.78;;;;;;;1.36;100.00;97247.63;4157485;28;20640;-46
2023/12/01 07:47:04;;;;;;;5.28;4.88;;;;;;;1.41;100.00;97242.38;4160753;28;20565;-45
2023/12/01 07:49:11;;;;;;;5.28;4.78;;;;;;;1.42;100.00;97232.44;4163440;28;20247;-46
2023/12/01 07:51:15;;;;;;;4.90;4.45;;;;;;;1.35;100.00;97237.06;4149540;28;20754;-46
2023/12/01 07:53:18;;;;;;;4.13;3.63;;;;;;;1.21;100.00;97212.13;4159412;28;20204;-46
2023/12/01 07:55:20;;;;;;;7.10;6.40;;;;;;;1.33;100.00;97221.13;4161789;28;20233;-46
2023/12/01 07:57:22;;;;;;;5.72;5.43;;;;;;;1.45;100.00;97232.81;4165219;28;20673;-45
2023/12/01 07:59:24;;;;;;;5.47;5.07;;;;;;;1.43;100.00;97229.53;4160606;28;20619;-46
2023/12/01 08:01:25;;;;;;;5.28;4.80;;;;;;;1.48;100.00;97226.97;4160015;28;20223;-46
2023/12/01 08:03:28;;;;;;;9.13;4.55;;;;;;;1.49;100.00;97244.75;4161340;28;20304;-46
2023/12/01 08:05:30;;;;;;;5.05;4.70;;;;;;;1.53;100.00;97235.19;4157420;28;20229;-46
2023/12/01 08:07:31;;;;;;;6.15;4.97;;;;;;;1.46;100.00;97222.84;4160185;28;20220;-46
2023/12/01 08:09:34;;;;;;;5.63;3.45;;;;;;;1.50;100.00;97232.13;4143631;28;20205;-47
2023/12/01 08:11:36;;;;;;;3.65;3.35;;;;;;;1.45;100.00;97243.59;4162045;28;20208;-46
2023/12/01 08:13:38;;;;;;;4.70;4.30;;;;;;;1.45;100.00;97243.59;4160454;28;20221;-46
2023/12/01 08:15:39;;;;;;;5.45;4.95;;;;;;;1.46;100.00;97229.06;4160340;28;20228;-45
2023/12/01 08:17:43;;;;;;;4.78;4.40;;;;;;;1.51;100.00;97225.69;4165348;28;20262;-46
2023/12/01 08:19:45;;;;;;;3.97;3.67;;;;;;;1.50;100.00;97235.66;4157043;28;20224;-46
2023/12/01 08:21:46;;;;;;;3.15;2.92;;;;;;;1.47;100.00;97236.09;4158444;28;20263;-45
2023/12/01 08:23:49;;;;;;;4.88;4.47;;;;;;;1.49;100.00;97234.00;4149805;28;20216;-45
2023/12/01 08:25:51;;;;;;;4.90;4.47;;;;;;;1.53;100.00;97235.19;4166466;28;20278;-45
2023/12/01 08:27:54;;;;;;;4.80;4.40;;;;;;;1.49;100.00;97234.00;4161618;28;20286;-46
2023/12/01 08:29:56;;;;;;;5.00;4.57;;;;;;;1.53;100.00;97235.19;4162161;28;20209;-45
2023/12/01 08:31:59;;;;;;;3.78;3.47;;;;;;;1.35;100.00;97235.19;4146662;28;20256;-45
2023/12/01 08:34:01;;;;;;;4.57;4.18;;;;;;;1.44;100.00;97239.25;4158922;28;20291;-45
2023/12/01 08:36:03;;;;;;;3.75;3.40;;;;;;;1.32;100.00;97232.13;4158070;28;20240;-45
2023/12/01 08:38:05;;;;;;;4.68;3.80;;;;;;;1.34;100.00;97235.44;4158874;28;20474;-45
2023/12/01 08:40:11;;;;;;;3.90;3.53;;;;;;;1.32;100.00;97243.72;4156751;28;20691;-45
2023/12/01 08:42:15;;;;;;;4.50;4.15;;;;;;;1.26;100.00;97246.47;4143683;28;20239;-45
2023/12/01 08:44:17;;;;;;;4.45;4.15;;;;;;;1.27;100.00;97257.03;4160307;28;20848;-45
2023/12/01 08:46:19;;;;;;;4.28;4.00;;;;;;;1.33;100.00;97266.91;4159133;28;20299;-45
2023/12/01 08:48:23;;;;;;;3.08;2.85;;;;;;;1.39;100.00;97276.81;4156862;28;20259;-46
2023/12/01 08:50:24;;;;;;;5.03;4.63;;;;;;;1.33;100.00;97266.91;4158685;28;20208;-45
2023/12/01 08:52:26;;;;;;;3.63;3.33;;;;;;;1.32;100.00;97262.59;4159770;28;20647;-46
2023/12/01 08:54:28;;;;;;;4.45;4.15;;;;;;;1.39;100.00;97267.88;4144197;28;20263;-45
2023/12/01 08:56:34;;;;;;;4.45;4.15;;;;;;;1.35;100.00;97254.03;4160249;28;20208;-45
2023/12/01 08:58:36;;;;;;;3.22;2.92;;;;;;;1.08;100.00;97268.00;4158075;28;20213;-45
2023/12/01 09:00:38;;;;;;;3.95;2.80;;;;;;;1.21;100.00;97263.31;4155726;28;20232;-46
2023/12/01 09:02:40;;;;;;;2.83;2.63;;;;;;;1.29;100.00;97260.31;4157845;28;20219;-46
2023/12/01 09:04:42;;;;;;;4.70;4.28;;;;;;;1.32;100.00;97251.81;4174464;28;20284;-46
2023/12/01 09:06:43;;;;;;;3.30;3.00;;;;;;;1.42;100.00;97245.91;4160727;28;20407;-46
2023/12/01 09:08:45;;;;;;;2.92;2.72;;;;;;;1.44;100.00;97247.34;4160922;28;20200;-45
2023/12/01 09:10:47;;;;;;;3.63;3.33;;;;;;;1.48;100.00;97253.09;4159030;28;20623;-45
2023/12/01 09:12:50;;;;;;;3.72;3.40;;;;;;;1.58;100.00;97248.81;4158933;28;20219;-45
2023/12/01 09:14:53;;;;;;;4.35;4.00;;;;;;;1.44;100.00;97238.41;4160512;28;20260;-45
2023/12/01 09:16:55;;;;;;;3.33;3.13;;;;;;;1.51;100.00;97231.91;4145714;28;20221;-46
2023/12/01 09:18:57;;;;;;;2.50;2.30;;;;;;;1.37;100.00;97246.59;4160823;28;20212;-45
2023/12/01 09:20:59;;;;;;;3.42;3.13;;;;;;;1.44;100.00;97246.50;4153328;28;20233;-46
2023/12/01 09:23:01;;;;;;;4.90;4.60;;;;;;;1.44;100.00;97241.94;4164849;28;20240;-45
2023/12/01 09:25:03;;;;;;;5.13;3.20;;;;;;;1.26;100.00;97235.69;4160065;28;20223;-45
2023/12/01 09:27:08;;;;;;;3.88;3.58;;;;;;;1.32;100.00;97246.41;4147449;28;20213;-46
2023/12/01 09:29:10;;;;;;;3.75;3.45;;;;;;;1.48;100.00;97251.22;4164579;28;20204;-46
2023/12/01 09:31:12;;;;;;;3.78;3.42;;;;;;;1.47;100.00;97256.84;4163282;28;21155;-45
2023/12/01 09:33:14;;;;;;;3.08;2.88;;;;;;;1.49;100.00;97254.75;4163393;28;20209;-46
2023/12/01 09:35:16;;;;;;;4.43;3.88;;;;;;;1.38;100.00;97269.78;4146017;28;20699;-46
2023/12/01 09:37:38;;;;;;;3.90;3.70;;;;;;;1.35;100.00;97272.91;4153748;28;20296;-46